createdAt,value
2017-01-06T20:26:42.944Z,98.3
2017-01-06T20:27:04.493Z,98.5
2017-01-06T20:27:25.874Z,98.6
2017-01-06T20:27:47.396Z,98.5
2017-01-06T20:28:08.704Z,98.7
2017-01-06T20:28:30.390Z,98.6
2017-01-06T20:28:52.058Z,97.9
2017-01-06T20:29:13.364Z,98.2
2017-01-06T20:29:34.688Z,98.6
2017-01-06T20:29:56.004Z,99.2
2017-01-06T20:30:17.363Z,99.1
2017-01-06T20:30:38.666Z,99.4
2017-01-06T20:30:59.990Z,99
2017-01-06T20:31:21.325Z,99.1
2017-01-06T20:31:42.645Z,98.4
2017-01-06T20:32:04.027Z,98.7
2017-01-06T20:32:25.323Z,98.1
2017-01-06T20:32:46.655Z,97.8
2017-01-06T20:33:07.972Z,97.9
2017-01-06T20:33:29.264Z,97.9
2017-01-06T20:33:50.579Z,97.9
2017-01-06T20:34:11.893Z,98.2
2017-01-06T20:34:33.242Z,98.2
2017-01-06T20:34:54.555Z,97.9
2017-01-06T20:35:15.875Z,98.2
2017-01-06T20:35:37.200Z,98.5
2017-01-06T20:35:58.503Z,98.3
2017-01-06T20:36:19.819Z,98.4
2017-01-06T20:36:41.140Z,99.2
2017-01-06T20:37:02.460Z,99.2
2017-01-06T20:37:23.777Z,99.2
2017-01-06T20:37:45.079Z,99.1
2017-01-06T20:38:06.388Z,99.3
2017-01-06T20:38:27.690Z,98.9
2017-01-06T20:38:49.585Z,98.2
2017-01-06T20:39:10.968Z,98.6
2017-01-06T20:39:32.296Z,98.7
2017-01-06T20:39:53.635Z,98.6
2017-01-06T20:40:14.965Z,98.6
2017-01-06T20:40:36.264Z,98.2
2017-01-06T20:40:57.582Z,98.2
2017-01-06T20:41:18.899Z,98.1
2017-01-06T20:41:40.243Z,98
2017-01-06T20:42:01.552Z,98.6
2017-01-06T20:42:22.883Z,98.7
2017-01-06T20:42:44.311Z,98.5
2017-01-06T20:43:06.099Z,99.1
2017-01-06T20:43:27.435Z,99.2
2017-01-06T20:43:48.760Z,98.6
2017-01-06T20:44:10.066Z,98.6
2017-01-06T20:44:31.391Z,98.5
2017-01-06T20:44:52.739Z,98.5
2017-01-06T20:45:14.045Z,99.1
2017-01-06T20:45:35.372Z,98.3
2017-01-06T20:45:56.763Z,98.7
2017-01-06T20:46:18.182Z,98.8
2017-01-06T20:46:39.496Z,99
2017-01-06T20:47:00.924Z,99.5
2017-01-06T20:47:22.267Z,99.2
2017-01-06T20:47:43.575Z,99
2017-01-06T20:48:04.883Z,98.9
2017-01-06T20:48:26.200Z,98.5
2017-01-06T20:48:47.512Z,98.6
2017-01-06T20:49:08.828Z,98
2017-01-06T20:49:30.183Z,98.6
2017-01-06T20:49:51.496Z,98.4
2017-01-06T20:50:12.865Z,98.4
2017-01-06T20:50:34.177Z,98.6
2017-01-06T20:50:55.504Z,98.5
2017-01-06T20:51:16.901Z,98.3
2017-01-06T20:51:38.230Z,98.3
2017-01-06T20:51:59.556Z,98.2
2017-01-06T20:52:20.893Z,98.4
2017-01-06T20:52:42.204Z,98.4
2017-01-06T20:53:03.551Z,98.1
2017-01-06T20:53:24.872Z,98.2
2017-01-06T20:53:46.175Z,98.7
2017-01-06T20:54:07.496Z,98.8
2017-01-06T20:54:28.867Z,98.7
2017-01-06T20:54:50.251Z,98.4
2017-01-06T20:55:11.650Z,98.4
2017-01-06T20:55:33.700Z,99.2
2017-01-06T20:55:56.004Z,98.4
2017-01-06T20:56:18.050Z,98.5
2017-01-06T20:56:40.022Z,98.6
2017-01-06T20:57:02.219Z,98
2017-01-06T20:57:24.215Z,98.4
2017-01-06T20:57:46.290Z,98.7
2017-01-06T20:58:08.255Z,98.5
2017-01-06T20:58:30.430Z,98.2
2017-01-06T20:58:52.289Z,99.3
2017-01-06T20:59:14.274Z,98.8
2017-01-06T20:59:36.379Z,99.1
2017-01-06T20:59:58.442Z,99.3
2017-01-06T21:00:20.466Z,99.1
2017-01-06T21:00:42.368Z,99.2
2017-01-06T21:01:04.239Z,99.2
2017-01-06T21:01:26.310Z,99
2017-01-06T21:01:48.242Z,99.5
2017-01-06T21:02:10.341Z,99.3
2017-01-06T21:02:32.416Z,100
2017-01-06T21:02:54.441Z,99.3
2017-01-06T21:03:16.447Z,99.1
2017-01-06T21:03:39.332Z,99.3
2017-01-06T21:04:01.241Z,99.4
2017-01-06T21:04:23.142Z,99.3
2017-01-06T21:04:45.050Z,99.3
2017-01-06T21:05:06.989Z,100
2017-01-06T21:05:28.982Z,99.7
2017-01-06T21:05:50.988Z,100
2017-01-06T21:06:13.041Z,100
2017-01-06T21:06:34.959Z,99.9
2017-01-06T21:06:56.841Z,100
2017-01-06T21:07:18.996Z,100
2017-01-06T21:07:41.010Z,100
2017-01-06T21:08:02.966Z,100
2017-01-06T21:08:25.044Z,100
2017-01-06T21:08:46.955Z,100
2017-01-06T21:09:09.064Z,100
2017-01-06T21:09:31.053Z,99.9
2017-01-06T21:09:53.110Z,100
2017-01-06T21:10:15.128Z,100
2017-01-06T21:10:37.143Z,99.6
2017-01-06T21:10:59.120Z,99.9
2017-01-06T21:11:21.260Z,99.3
2017-01-06T21:11:43.348Z,99.1
2017-01-06T21:12:05.312Z,99.6
2017-01-06T21:12:27.376Z,100
2017-01-06T21:12:49.536Z,100
2017-01-06T21:13:11.533Z,99.7
2017-01-06T21:13:33.614Z,99.5
2017-01-06T21:13:55.452Z,100
2017-01-06T21:14:17.342Z,100
2017-01-06T21:14:39.395Z,100
2017-01-06T21:15:01.432Z,100
2017-01-06T21:15:23.483Z,100
2017-01-06T21:15:45.534Z,100
2017-01-06T21:16:07.829Z,99.9
2017-01-06T21:16:29.882Z,100
2017-01-06T21:16:52.152Z,100
2017-01-06T21:17:14.227Z,100
2017-01-06T21:17:36.370Z,100
2017-01-06T21:17:58.356Z,100
2017-01-06T21:18:20.442Z,100
2017-01-06T21:18:42.610Z,100
2017-01-06T21:19:04.627Z,100
2017-01-06T21:19:26.776Z,100
2017-01-06T21:19:48.770Z,100
2017-01-06T21:20:10.784Z,100
2017-01-06T21:20:32.760Z,100
2017-01-06T21:20:54.739Z,100
2017-01-06T21:21:16.705Z,100
2017-01-06T21:21:38.648Z,100
2017-01-06T21:22:00.964Z,99.5
2017-01-06T21:22:23.034Z,99.5
2017-01-06T21:22:45.034Z,99.3
2017-01-06T21:23:07.108Z,99.5
2017-01-06T21:23:29.062Z,99.7
2017-01-06T21:23:50.976Z,99.7
2017-01-06T21:24:13.060Z,99.6
2017-01-06T21:24:35.081Z,99.2
2017-01-06T21:24:57.137Z,99.4
2017-01-06T21:25:19.212Z,99.6
2017-01-06T21:25:41.226Z,100
2017-01-06T21:26:03.289Z,100
2017-01-06T21:26:25.387Z,100
2017-01-06T21:26:47.368Z,100
2017-01-06T21:27:09.427Z,100
2017-01-06T21:27:31.410Z,100
2017-01-06T21:27:53.450Z,100
2017-01-06T21:28:15.552Z,100
2017-01-06T21:28:37.533Z,100
2017-01-06T21:28:59.527Z,100
2017-01-06T21:29:21.431Z,100
2017-01-06T21:29:43.346Z,100
2017-01-06T21:30:05.522Z,100
2017-01-06T21:30:27.501Z,99.4
2017-01-06T21:30:49.399Z,100
2017-01-06T21:31:11.349Z,100
2017-01-06T21:31:33.369Z,100
2017-01-06T21:31:55.437Z,99.8
2017-01-06T21:32:17.412Z,99.7
2017-01-06T21:32:39.400Z,100
2017-01-06T21:33:01.048Z,100
2017-01-06T21:33:23.128Z,100
2017-01-06T21:33:45.130Z,100
2017-01-06T21:34:06.951Z,100
2017-01-06T21:34:29.028Z,100
2017-01-06T21:34:51.100Z,100
2017-01-06T21:35:13.361Z,100
2017-01-06T21:35:35.415Z,100
2017-01-06T21:35:57.479Z,100
2017-01-06T21:36:19.245Z,100
2017-01-06T21:36:41.279Z,100
2017-01-06T21:37:03.276Z,100
2017-01-06T21:37:25.174Z,100
2017-01-06T21:37:47.194Z,100
2017-01-06T21:38:09.106Z,99.5
2017-01-06T21:38:30.991Z,99.7
2017-01-06T21:39:02.634Z,99.6
2017-01-06T21:39:24.781Z,100
2017-01-06T21:39:46.701Z,99.8
2017-01-06T21:40:08.625Z,99.4
2017-01-06T21:40:30.548Z,99.7
2017-01-06T21:40:52.586Z,99.5
2017-01-06T21:41:14.715Z,99.5
2017-01-06T21:41:36.771Z,99.5
2017-01-06T21:41:58.782Z,99.5
2017-01-06T21:42:20.750Z,99.5
2017-01-06T21:42:42.753Z,99.7
2017-01-06T21:43:04.736Z,99.6
2017-01-06T21:43:26.651Z,99.6
2017-01-06T21:43:48.730Z,99.9
2017-01-06T21:44:10.880Z,99.7
2017-01-06T21:44:32.963Z,99.7
2017-01-06T21:44:55.085Z,99.7
2017-01-06T21:45:17.076Z,99.9
2017-01-06T21:45:39.060Z,99.7
2017-01-06T21:46:00.970Z,100
2017-01-06T21:46:23.034Z,99.8
2017-01-06T21:46:45.047Z,99.6
2017-01-06T21:47:06.985Z,99.7
2017-01-06T21:47:29.033Z,100
2017-01-06T21:47:51.082Z,100
2017-01-06T21:48:13.234Z,100
2017-01-06T21:48:35.649Z,100
2017-01-06T21:48:58.633Z,100
2017-01-06T21:49:21.106Z,100
2017-01-06T21:49:43.193Z,100
2017-01-06T21:50:05.289Z,100
2017-01-06T21:50:27.286Z,100
2017-01-06T21:50:49.355Z,100
2017-01-06T21:51:11.266Z,100
2017-01-06T21:51:33.424Z,100
2017-01-06T21:51:55.383Z,100
2017-01-06T21:52:17.491Z,100
2017-01-06T21:52:39.579Z,100
2017-01-06T21:53:01.916Z,100
2017-01-06T21:53:24.033Z,100
2017-01-06T21:53:45.970Z,100
2017-01-06T21:54:07.952Z,100
2017-01-06T21:54:29.979Z,100
2017-01-06T21:54:52.207Z,100
2017-01-06T21:55:14.180Z,100
2017-01-06T21:55:36.192Z,100
2017-01-06T21:55:58.228Z,100
2017-01-06T21:56:20.270Z,100
2017-01-06T21:56:42.172Z,100
2017-01-06T21:57:04.221Z,100
2017-01-06T21:57:26.145Z,100
2017-01-06T21:57:48.272Z,100
2017-01-06T21:58:10.207Z,100
2017-01-06T21:58:32.235Z,100
2017-01-06T21:58:54.110Z,100
2017-01-06T21:59:16.139Z,100
2017-01-06T21:59:38.317Z,100
2017-01-06T22:00:00.370Z,100
2017-01-06T22:00:22.511Z,100
2017-01-06T22:00:44.469Z,100
2017-01-06T22:01:06.466Z,100
2017-01-06T22:01:28.573Z,100
2017-01-06T22:01:50.557Z,100
2017-01-06T22:02:12.791Z,100
2017-01-06T22:02:34.810Z,100
2017-01-06T22:02:56.860Z,100
2017-01-06T22:03:18.957Z,100
2017-01-06T22:03:40.852Z,100
2017-01-06T22:04:03.193Z,100
2017-01-06T22:04:25.152Z,100
2017-01-06T22:04:47.123Z,100
2017-01-06T22:05:08.984Z,100
2017-01-06T22:05:30.908Z,100
2017-01-06T22:05:53.109Z,100
2017-01-06T22:06:15.115Z,100
2017-01-06T22:06:37.929Z,100
2017-01-06T22:07:01.453Z,100
2017-01-06T22:07:24.480Z,100
2017-01-06T22:07:47.795Z,100
2017-01-06T22:08:10.957Z,100
2017-01-06T22:08:32.679Z,100
2017-01-06T22:08:54.668Z,100
2017-01-06T22:09:16.714Z,100
2017-01-06T22:09:38.733Z,100
2017-01-06T22:10:00.821Z,100
2017-01-06T22:10:23.055Z,100
2017-01-06T22:10:45.366Z,100
2017-01-06T22:11:07.038Z,100
2017-01-06T22:11:29.086Z,100
2017-01-06T22:11:51.132Z,100
2017-01-06T22:12:13.191Z,100
2017-01-06T22:12:35.019Z,100
2017-01-06T22:12:57.035Z,100
2017-01-06T22:13:19.070Z,100
2017-01-06T22:13:40.936Z,100
2017-01-06T22:14:03.014Z,100
2017-01-06T22:14:24.962Z,100
2017-01-06T22:14:47.098Z,100
2017-01-06T22:15:09.194Z,100
2017-01-06T22:15:31.310Z,100
2017-01-06T22:15:53.099Z,100
2017-01-06T22:16:15.477Z,100
2017-01-06T22:16:37.482Z,100
2017-01-06T22:16:59.738Z,100
2017-01-06T22:17:21.765Z,100
2017-01-06T22:17:44.237Z,100
2017-01-06T22:18:06.784Z,100
2017-01-06T22:18:28.593Z,100
2017-01-06T22:18:50.434Z,100
2017-01-06T22:19:12.504Z,100
2017-01-06T22:19:34.897Z,100
2017-01-06T22:19:57.066Z,100
2017-01-06T22:20:19.037Z,100
2017-01-06T22:20:40.911Z,100
2017-01-06T22:21:02.973Z,100
2017-01-06T22:21:25.007Z,100
2017-01-06T22:21:47.522Z,100
2017-01-06T22:22:09.777Z,100
2017-01-06T22:22:31.778Z,100
2017-01-06T22:22:54.254Z,100
2017-01-06T22:23:16.187Z,100
2017-01-06T22:23:38.139Z,100
2017-01-06T22:24:00.225Z,100
2017-01-06T22:24:22.201Z,100
2017-01-06T22:24:45.177Z,100
2017-01-06T22:25:08.298Z,100
2017-01-06T22:25:30.718Z,100
2017-01-06T22:25:52.850Z,100
2017-01-06T22:26:14.979Z,100
2017-01-06T22:26:36.960Z,100
2017-01-06T22:26:58.942Z,100
2017-01-06T22:27:20.929Z,100
2017-01-06T22:27:42.955Z,100
2017-01-06T22:28:05.071Z,100
2017-01-06T22:28:31.764Z,100
2017-01-06T22:28:58.081Z,100
2017-01-06T22:29:24.336Z,100
2017-01-06T22:29:50.524Z,100
2017-01-06T22:30:16.765Z,100
2017-01-06T22:30:43.956Z,100
2017-01-06T22:31:09.873Z,100
2017-01-06T22:31:34.710Z,100
2017-01-06T22:31:57.978Z,100
2017-01-06T22:32:19.303Z,100
2017-01-06T22:32:42.309Z,100
2017-01-06T22:33:07.356Z,100
2017-01-06T22:33:32.925Z,100
2017-01-06T22:33:55.851Z,100
2017-01-06T22:34:18.237Z,100
2017-01-06T22:34:43.589Z,100
2017-01-06T22:35:09.429Z,100
2017-01-06T22:35:34.648Z,100
2017-01-06T22:36:01.626Z,100
2017-01-06T22:36:26.119Z,100
2017-01-06T22:36:47.634Z,100
2017-01-06T22:37:10.915Z,100
2017-01-06T22:37:35.571Z,100
2017-01-06T22:38:00.713Z,100
2017-01-06T22:38:23.643Z,100
2017-01-06T22:38:49.091Z,100
2017-01-06T22:39:12.957Z,100
2017-01-06T22:39:36.864Z,100
2017-01-06T22:40:00.108Z,100
2017-01-06T22:40:23.138Z,100
2017-01-06T22:40:44.448Z,100
2017-01-06T22:41:05.833Z,100
2017-01-06T22:41:27.181Z,100
2017-01-06T22:41:49.550Z,100
2017-01-06T22:42:13.078Z,100
2017-01-06T22:42:36.641Z,100
2017-01-06T22:42:58.568Z,100
2017-01-06T22:43:20.920Z,100
2017-01-06T22:43:42.837Z,100
2017-01-06T22:44:04.278Z,100
2017-01-06T22:44:26.266Z,100
2017-01-06T22:44:48.125Z,100
2017-01-06T22:45:09.454Z,100
2017-01-06T22:45:30.757Z,100
2017-01-06T22:45:52.269Z,100
2017-01-06T22:46:13.577Z,100
2017-01-06T22:46:34.882Z,100
2017-01-06T22:46:56.248Z,100
2017-01-06T22:47:17.559Z,100
2017-01-06T22:47:38.875Z,100
2017-01-06T22:48:00.193Z,100
2017-01-06T22:48:21.492Z,100
2017-01-06T22:48:42.793Z,100
2017-01-06T22:49:04.139Z,100
2017-01-06T22:49:25.483Z,100
2017-01-06T22:49:46.790Z,100
2017-01-06T22:50:08.099Z,100
2017-01-06T22:50:29.418Z,100
2017-01-06T22:50:50.724Z,100
2017-01-06T22:51:12.049Z,100
2017-01-06T22:51:33.393Z,100
2017-01-06T22:51:54.727Z,100
2017-01-06T22:52:16.054Z,100
2017-01-06T22:52:37.368Z,100
2017-01-06T22:52:58.686Z,100
2017-01-06T22:53:20.005Z,100
2017-01-06T22:53:41.377Z,100
2017-01-06T22:54:02.692Z,100
2017-01-06T22:54:23.993Z,100
2017-01-06T22:54:45.308Z,100
2017-01-06T22:55:06.662Z,100
2017-01-06T22:55:28.000Z,100
2017-01-06T22:55:49.310Z,100
2017-01-06T22:56:10.621Z,100
2017-01-06T22:56:31.975Z,100
2017-01-06T22:56:53.335Z,100
2017-01-06T22:57:14.641Z,100
2017-01-06T22:57:35.955Z,100
2017-01-06T22:57:57.284Z,100
2017-01-06T22:58:18.641Z,100
2017-01-06T22:58:40.001Z,100
2017-01-06T22:59:01.339Z,100
2017-01-06T22:59:22.717Z,100
2017-01-06T22:59:44.037Z,100
2017-01-06T23:00:05.407Z,100
2017-01-06T23:00:26.746Z,100
2017-01-06T23:00:48.099Z,100
2017-01-06T23:01:09.400Z,100
2017-01-06T23:01:30.716Z,100
2017-01-06T23:01:52.056Z,100
2017-01-06T23:02:13.367Z,100
2017-01-06T23:02:34.866Z,100
2017-01-06T23:02:56.184Z,100
2017-01-06T23:03:17.504Z,100
2017-01-06T23:03:38.826Z,100
2017-01-06T23:04:00.139Z,100
2017-01-06T23:04:21.566Z,100
2017-01-06T23:04:42.907Z,100
2017-01-06T23:05:04.218Z,100
2017-01-06T23:05:25.524Z,100
2017-01-06T23:05:46.846Z,100
2017-01-06T23:06:08.170Z,100
2017-01-06T23:06:29.487Z,100
2017-01-06T23:06:50.823Z,100
2017-01-06T23:07:12.136Z,100
2017-01-06T23:07:33.434Z,100
2017-01-06T23:07:54.741Z,100
2017-01-06T23:08:16.059Z,100
2017-01-06T23:08:37.367Z,100
2017-01-06T23:08:58.731Z,100
2017-01-06T23:09:20.048Z,100
2017-01-06T23:09:41.365Z,100
2017-01-06T23:10:02.715Z,100
2017-01-06T23:10:24.026Z,100
2017-01-06T23:10:45.381Z,100
2017-01-06T23:11:06.753Z,100
2017-01-06T23:11:28.093Z,100
2017-01-06T23:11:49.421Z,100
2017-01-06T23:12:10.763Z,100
2017-01-06T23:12:32.066Z,100
2017-01-06T23:12:53.400Z,100
2017-01-06T23:13:14.709Z,100
2017-01-06T23:13:36.034Z,100
2017-01-06T23:13:57.359Z,100
2017-01-06T23:14:18.674Z,100
2017-01-06T23:14:39.987Z,100
2017-01-06T23:15:01.318Z,100
2017-01-06T23:15:22.627Z,100
2017-01-06T23:15:43.949Z,100
2017-01-06T23:16:05.273Z,100
2017-01-06T23:16:26.584Z,100
2017-01-06T23:16:48.043Z,100
2017-01-06T23:17:09.340Z,100
2017-01-06T23:17:30.646Z,100
2017-01-06T23:17:51.960Z,100
2017-01-06T23:18:13.273Z,100
2017-01-06T23:18:34.584Z,100
2017-01-06T23:18:55.904Z,100
2017-01-06T23:19:17.230Z,100
2017-01-06T23:19:38.532Z,100
2017-01-06T23:19:59.846Z,100
2017-01-06T23:20:21.147Z,100
2017-01-06T23:20:42.464Z,100
2017-01-06T23:21:03.772Z,100
2017-01-06T23:21:25.082Z,100
2017-01-06T23:21:46.418Z,100
2017-01-06T23:22:07.727Z,100
2017-01-06T23:22:29.038Z,100
2017-01-06T23:22:50.342Z,100
2017-01-06T23:23:11.651Z,100
2017-01-06T23:23:32.962Z,100
2017-01-06T23:23:54.265Z,100
2017-01-06T23:24:15.594Z,100
2017-01-06T23:24:36.947Z,100
2017-01-06T23:24:58.278Z,100
2017-01-06T23:25:19.612Z,100
2017-01-06T23:25:40.922Z,100
2017-01-06T23:26:02.240Z,100
2017-01-06T23:26:23.604Z,100
2017-01-06T23:26:44.978Z,100
2017-01-06T23:27:06.288Z,100
2017-01-06T23:27:27.605Z,100
2017-01-06T23:27:48.974Z,100
2017-01-06T23:28:10.302Z,100
2017-01-06T23:28:31.685Z,100
2017-01-06T23:28:52.983Z,100
2017-01-06T23:29:14.345Z,100
2017-01-06T23:29:35.657Z,100
2017-01-06T23:29:57.005Z,100
2017-01-06T23:30:18.326Z,100
2017-01-06T23:30:39.635Z,100
2017-01-06T23:31:00.972Z,100
2017-01-06T23:31:22.272Z,100
2017-01-06T23:31:43.596Z,100
2017-01-06T23:32:04.944Z,100
2017-01-06T23:32:26.252Z,100
2017-01-06T23:32:47.598Z,100
2017-01-06T23:33:08.914Z,100
2017-01-06T23:33:30.274Z,100
2017-01-06T23:33:51.600Z,100
2017-01-06T23:34:12.920Z,100
2017-01-06T23:34:34.231Z,100
2017-01-06T23:34:55.542Z,100
2017-01-06T23:35:16.850Z,100
2017-01-06T23:35:38.169Z,100
2017-01-06T23:35:59.469Z,100
2017-01-06T23:36:20.776Z,100
2017-01-06T23:36:42.093Z,100
2017-01-06T23:37:03.442Z,100
2017-01-06T23:37:24.766Z,100
2017-01-06T23:37:46.084Z,100
2017-01-06T23:38:07.433Z,100
2017-01-06T23:38:28.772Z,100
2017-01-06T23:38:50.139Z,100
2017-01-06T23:39:11.465Z,100
2017-01-06T23:39:32.790Z,100
2017-01-06T23:39:54.128Z,100
2017-01-06T23:40:15.440Z,100
2017-01-06T23:40:36.805Z,100
2017-01-06T23:40:58.154Z,100
2017-01-06T23:41:19.453Z,100
2017-01-06T23:41:40.782Z,100
2017-01-06T23:42:02.124Z,100
2017-01-06T23:42:23.428Z,100
2017-01-06T23:42:44.739Z,100
2017-01-06T23:43:06.083Z,100
2017-01-06T23:43:27.395Z,100
2017-01-06T23:43:48.700Z,100
2017-01-06T23:44:10.001Z,100
2017-01-06T23:44:31.339Z,100
2017-01-06T23:44:52.660Z,100
2017-01-06T23:45:13.993Z,100
2017-01-06T23:45:35.304Z,100
2017-01-06T23:45:56.646Z,100
2017-01-06T23:46:17.948Z,100
2017-01-06T23:46:39.279Z,100
2017-01-06T23:47:00.617Z,100
2017-01-06T23:47:21.929Z,100
2017-01-06T23:47:43.248Z,100
2017-01-06T23:48:04.562Z,100
2017-01-06T23:48:25.858Z,100
2017-01-06T23:48:47.161Z,100
2017-01-06T23:49:08.460Z,100
2017-01-06T23:49:29.766Z,100
2017-01-06T23:49:51.085Z,100
2017-01-06T23:50:12.387Z,100
2017-01-06T23:50:33.711Z,100
2017-01-06T23:50:55.045Z,100
2017-01-06T23:51:16.401Z,100
2017-01-06T23:51:37.756Z,100
2017-01-06T23:51:59.128Z,100
2017-01-06T23:52:20.495Z,100
2017-01-06T23:52:41.814Z,100
2017-01-06T23:53:03.164Z,100
2017-01-06T23:53:24.487Z,100
2017-01-06T23:53:45.789Z,100
2017-01-06T23:54:07.123Z,100
2017-01-06T23:54:28.444Z,100
2017-01-06T23:54:49.781Z,100
2017-01-06T23:55:11.138Z,100
2017-01-06T23:55:32.448Z,100
2017-01-06T23:55:53.753Z,100
2017-01-06T23:56:15.115Z,100
2017-01-06T23:56:36.479Z,100
2017-01-06T23:56:57.798Z,100
2017-01-06T23:57:19.119Z,100
2017-01-06T23:57:40.445Z,100
2017-01-06T23:58:01.773Z,100
2017-01-06T23:58:23.086Z,100
2017-01-06T23:58:44.396Z,100
2017-01-06T23:59:05.719Z,100
2017-01-06T23:59:27.047Z,100
2017-01-06T23:59:48.361Z,100
